createdAt,value
2019-02-05T00:01:33.997Z,79.90
2019-02-05T00:04:01.948Z,80.10
2019-02-05T00:06:30.004Z,80.40
2019-02-05T00:08:58.888Z,80.40
2019-02-05T00:11:26.512Z,80.80
2019-02-05T00:13:53.961Z,80.90
2019-02-05T00:16:21.416Z,81.00
2019-02-05T00:18:51.541Z,81.30
2019-02-05T00:21:18.225Z,81.60
2019-02-05T00:23:45.662Z,81.90
2019-02-05T00:26:13.050Z,82.20
2019-02-05T00:28:40.519Z,82.40
2019-02-05T00:31:07.910Z,82.60
2019-02-05T00:33:35.699Z,82.70
2019-02-05T00:36:03.984Z,83.00
2019-02-05T00:38:31.515Z,83.20
2019-02-05T00:40:59.037Z,83.50
2019-02-05T00:43:26.473Z,83.70
2019-02-05T00:45:53.914Z,84.00
2019-02-05T00:48:21.887Z,84.20
2019-02-05T00:50:49.552Z,84.40
2019-02-05T00:53:17.039Z,84.10
2019-02-05T00:55:44.509Z,84.30
2019-02-05T00:58:12.354Z,84.10
2019-02-05T01:00:39.859Z,84.10
2019-02-05T01:03:07.431Z,84.30
2019-02-05T01:05:35.058Z,84.30
2019-02-05T01:08:03.132Z,84.40
2019-02-05T01:10:30.545Z,84.70
2019-02-05T01:12:57.998Z,84.60
2019-02-05T01:15:25.669Z,84.80
2019-02-05T01:17:54.878Z,84.80
2019-02-05T01:20:22.662Z,84.90
2019-02-05T01:22:50.742Z,85.10
2019-02-05T01:25:18.384Z,85.10
2019-02-05T01:27:46.824Z,85.30
2019-02-05T01:30:16.968Z,85.30
2019-02-05T01:32:44.550Z,85.60
2019-02-05T01:35:12.343Z,85.80
2019-02-05T01:37:39.778Z,85.60
2019-02-05T01:40:09.382Z,85.50
2019-02-05T01:42:36.878Z,85.70
2019-02-05T01:45:07.640Z,85.90
2019-02-05T01:47:35.175Z,85.90
2019-02-05T01:50:04.087Z,85.80
2019-02-05T01:52:31.596Z,85.60
2019-02-05T01:54:59.042Z,85.80
2019-02-05T01:57:26.650Z,85.80
2019-02-05T01:59:54.555Z,85.80
2019-02-05T02:02:21.993Z,85.70
2019-02-05T02:04:49.627Z,85.90
2019-02-05T02:07:17.186Z,86.30
2019-02-05T02:09:44.702Z,86.60
2019-02-05T02:12:12.122Z,87.10
2019-02-05T02:14:39.635Z,88.10
2019-02-05T02:17:07.562Z,88.70
2019-02-05T02:19:35.038Z,89.10
2019-02-05T02:22:02.472Z,89.30
2019-02-05T02:24:30.003Z,89.50
2019-02-05T02:26:57.391Z,89.60
2019-02-05T02:29:24.816Z,88.90
2019-02-05T02:31:52.259Z,89.00
2019-02-05T02:34:19.656Z,89.30
2019-02-05T02:36:47.127Z,89.40
2019-02-05T02:39:14.920Z,89.90
2019-02-05T02:41:42.295Z,90.20
2019-02-05T02:44:09.809Z,89.80
2019-02-05T02:46:37.244Z,90.10
2019-02-05T02:49:04.905Z,89.70
2019-02-05T02:51:32.293Z,89.80
2019-02-05T02:53:59.791Z,89.90
2019-02-05T02:56:27.304Z,90.10
2019-02-05T02:58:54.806Z,90.20
2019-02-05T03:01:22.414Z,90.50
2019-02-05T03:03:49.826Z,90.70
2019-02-05T03:06:17.410Z,90.90
2019-02-05T03:08:44.835Z,91.10
2019-02-05T03:11:12.719Z,91.10
2019-02-05T03:13:40.208Z,91.30
2019-02-05T03:16:07.725Z,91.40
2019-02-05T03:18:35.249Z,91.40
2019-02-05T03:21:02.748Z,91.30
2019-02-05T03:23:30.236Z,91.30
2019-02-05T03:25:57.783Z,91.50
2019-02-05T03:28:25.162Z,91.50
2019-02-05T03:31:04.275Z,91.80
2019-02-05T03:33:22.185Z,91.50
2019-02-05T03:35:49.735Z,91.60
2019-02-05T03:38:17.186Z,91.60
2019-02-05T03:41:04.918Z,91.60
2019-02-05T03:43:33.331Z,91.80
2019-02-05T03:46:06.383Z,91.70
2019-02-05T03:48:34.390Z,91.60
2019-02-05T03:51:19.879Z,91.40
2019-02-05T03:53:51.301Z,91.10
2019-02-05T03:56:57.672Z,91.10
2019-02-05T04:00:07.897Z,90.90
2019-02-05T04:03:14.373Z,90.60
2019-02-05T04:06:00.945Z,90.70
2019-02-05T04:08:43.230Z,90.70
2019-02-05T04:12:07.402Z,90.90
2019-02-05T04:15:12.826Z,91.00
2019-02-05T04:18:43.251Z,91.00
2019-02-05T04:21:51.690Z,91.10
2019-02-05T04:24:58.114Z,91.00
2019-02-05T04:28:04.609Z,91.30
2019-02-05T04:31:19.637Z,91.50
2019-02-05T04:34:24.443Z,91.40
2019-02-05T04:37:37.122Z,91.60
2019-02-05T04:40:26.763Z,91.80
2019-02-05T04:43:39.125Z,91.70
2019-02-05T04:46:46.948Z,91.70
2019-02-05T04:49:39.863Z,91.90
2019-02-05T04:52:31.797Z,91.80
2019-02-05T04:55:19.726Z,91.80
2019-02-05T04:58:23.691Z,91.90
2019-02-05T05:01:51.673Z,91.90
2019-02-05T05:04:50.734Z,91.90
2019-02-05T05:08:11.820Z,92.30
2019-02-05T05:10:39.250Z,92.40
2019-02-05T05:13:06.757Z,92.40
2019-02-05T05:15:34.187Z,92.50
2019-02-05T05:18:01.611Z,92.40
2019-02-05T05:20:29.629Z,92.50
2019-02-05T05:22:57.034Z,92.50
2019-02-05T05:25:24.653Z,92.50
2019-02-05T05:28:09.419Z,92.50
2019-02-05T05:30:27.285Z,92.50
2019-02-05T05:32:54.696Z,92.40
2019-02-05T05:35:22.194Z,92.30
2019-02-05T05:37:49.987Z,92.30
2019-02-05T05:40:17.582Z,92.30
2019-02-05T05:42:45.106Z,92.30
2019-02-05T05:45:15.151Z,92.20
2019-02-05T05:47:42.739Z,92.20
2019-02-05T05:50:12.732Z,92.50
2019-02-05T05:52:40.284Z,92.10
2019-02-05T05:55:08.678Z,92.20
2019-02-05T05:57:36.085Z,92.20
2019-02-05T06:00:05.693Z,92.20
2019-02-05T06:02:33.691Z,92.40
2019-02-05T06:05:01.830Z,92.30
2019-02-05T06:07:29.734Z,92.20
2019-02-05T06:09:57.268Z,92.20
2019-02-05T06:12:26.690Z,92.20
2019-02-05T06:14:54.480Z,92.20
2019-02-05T06:17:21.898Z,92.20
2019-02-05T06:19:50.630Z,92.00
2019-02-05T06:22:18.131Z,92.10
2019-02-05T06:24:45.575Z,92.20
2019-02-05T06:27:13.267Z,92.10
2019-02-05T06:29:41.347Z,92.20
2019-02-05T06:32:08.901Z,92.20
2019-02-05T06:34:39.203Z,92.00
2019-02-05T06:37:06.601Z,92.10
2019-02-05T06:39:34.141Z,92.20
2019-02-05T06:42:03.880Z,92.30
2019-02-05T06:44:31.463Z,92.30
2019-02-05T06:46:58.933Z,92.30
2019-02-05T06:49:26.550Z,92.30
2019-02-05T06:51:54.041Z,92.20
2019-02-05T06:54:21.908Z,92.20
2019-02-05T06:56:50.942Z,92.10
2019-02-05T06:59:20.535Z,92.20
2019-02-05T07:01:47.995Z,92.00
2019-02-05T07:04:15.491Z,92.00
2019-02-05T07:06:43.802Z,91.90
2019-02-05T07:09:11.295Z,92.00
2019-02-05T07:11:38.777Z,92.10
2019-02-05T07:14:06.445Z,92.00
2019-02-05T07:16:33.982Z,91.90
2019-02-05T07:19:01.446Z,91.90
2019-02-05T07:21:31.108Z,92.20
2019-02-05T07:24:01.844Z,92.30
2019-02-05T07:26:29.332Z,92.40
2019-02-05T07:29:00.139Z,92.40
2019-02-05T07:31:26.466Z,92.30
2019-02-05T07:33:53.923Z,92.30
2019-02-05T07:36:21.551Z,92.30
2019-02-05T07:38:49.052Z,92.20
2019-02-05T07:41:16.556Z,92.10
2019-02-05T07:43:44.531Z,92.10
2019-02-05T07:46:12.162Z,92.20
2019-02-05T07:48:39.544Z,92.20
2019-02-05T07:51:07.047Z,92.30
2019-02-05T07:53:34.560Z,92.20
2019-02-05T07:56:02.051Z,92.40
2019-02-05T07:58:30.262Z,92.40
2019-02-05T08:00:57.825Z,92.70
2019-02-05T08:03:25.483Z,92.70
2019-02-05T08:05:53.593Z,92.70
2019-02-05T08:08:21.090Z,92.80
2019-02-05T08:10:48.799Z,93.10
2019-02-05T08:13:16.316Z,93.20
2019-02-05T08:15:43.814Z,93.00
2019-02-05T08:18:11.305Z,93.00
2019-02-05T08:20:38.889Z,92.90
2019-02-05T08:23:06.245Z,92.90
2019-02-05T08:25:33.790Z,92.90
2019-02-05T08:28:01.614Z,92.80
2019-02-05T08:30:31.783Z,93.00
2019-02-05T08:32:59.156Z,92.90
2019-02-05T08:35:26.554Z,92.80
2019-02-05T08:37:54.033Z,93.10
2019-02-05T08:40:21.518Z,93.30
2019-02-05T08:42:49.028Z,93.40
2019-02-05T08:45:18.624Z,93.60
2019-02-05T08:47:46.113Z,92.80
2019-02-05T08:50:16.335Z,93.00
2019-02-05T08:52:43.905Z,93.20
2019-02-05T08:55:13.705Z,93.20
2019-02-05T08:57:41.305Z,93.20
2019-02-05T09:00:18.576Z,93.10
2019-02-05T09:02:46.377Z,93.00
2019-02-05T09:05:14.387Z,93.00
2019-02-05T09:07:41.902Z,92.60
2019-02-05T09:10:11.384Z,92.80
2019-02-05T09:12:38.927Z,93.00
2019-02-05T09:15:08.454Z,93.30
2019-02-05T09:17:35.904Z,93.30
2019-02-05T09:20:05.347Z,93.50
2019-02-05T09:22:33.072Z,93.60
2019-02-05T09:25:01.759Z,93.50
2019-02-05T09:27:29.266Z,93.50
2019-02-05T09:29:56.794Z,92.90
2019-02-05T09:32:24.281Z,93.20
2019-02-05T09:34:51.687Z,93.40
2019-02-05T09:37:19.247Z,93.50
2019-02-05T09:39:47.321Z,93.50
2019-02-05T09:42:14.866Z,93.40
2019-02-05T09:44:42.329Z,93.30
2019-02-05T09:47:09.947Z,93.00
2019-02-05T09:49:37.472Z,92.80
2019-02-05T09:52:05.117Z,92.90
2019-02-05T09:54:32.900Z,93.00
2019-02-05T09:57:00.371Z,93.00
2019-02-05T09:59:28.389Z,92.90
2019-02-05T10:01:55.886Z,93.30
2019-02-05T10:04:23.197Z,93.30
2019-02-05T10:06:52.218Z,93.30
2019-02-05T10:09:19.850Z,93.40
2019-02-05T10:11:47.350Z,93.50
2019-02-05T10:14:14.836Z,93.30
2019-02-05T10:16:42.322Z,93.30
2019-02-05T10:19:10.295Z,92.80
2019-02-05T10:21:37.955Z,92.60
2019-02-05T10:24:05.595Z,92.70
2019-02-05T10:26:33.252Z,92.40
2019-02-05T10:29:00.771Z,92.40
2019-02-05T10:31:28.277Z,92.30
2019-02-05T10:33:55.805Z,92.30
2019-02-05T10:36:23.291Z,92.70
2019-02-05T10:38:50.992Z,92.70
2019-02-05T10:41:18.472Z,92.70
2019-02-05T10:43:45.916Z,92.90
2019-02-05T10:46:13.481Z,92.90
2019-02-05T10:48:41.004Z,93.20
2019-02-05T10:51:08.533Z,92.90
2019-02-05T10:53:36.016Z,92.70
2019-02-05T10:56:04.174Z,92.50
2019-02-05T10:58:32.225Z,92.80
2019-02-05T11:00:59.806Z,92.90
2019-02-05T11:03:27.621Z,92.20
2019-02-05T11:05:55.109Z,92.70
2019-02-05T11:08:22.751Z,92.20
2019-02-05T11:10:51.219Z,92.20
2019-02-05T11:13:19.018Z,92.00
2019-02-05T11:15:47.212Z,91.60
2019-02-05T11:18:14.685Z,91.90
2019-02-05T11:20:42.207Z,91.70
2019-02-05T11:23:10.077Z,92.20
2019-02-05T11:25:37.889Z,92.60
2019-02-05T11:28:05.895Z,92.60
2019-02-05T11:30:38.678Z,92.20
2019-02-05T11:33:06.203Z,92.10
2019-02-05T11:35:34.421Z,91.90
2019-02-05T11:38:02.535Z,92.00
2019-02-05T11:40:31.895Z,91.80
2019-02-05T11:42:59.528Z,91.50
2019-02-05T11:45:27.378Z,91.90
2019-02-05T11:47:55.692Z,92.20
2019-02-05T11:50:23.374Z,92.40
2019-02-05T11:52:51.563Z,92.20
2019-02-05T11:55:21.766Z,92.10
2019-02-05T11:57:49.646Z,92.10
2019-02-05T12:00:38.323Z,92.30
2019-02-05T12:03:07.410Z,92.10
2019-02-05T12:05:35.987Z,91.40
2019-02-05T12:08:03.915Z,91.20
2019-02-05T12:10:31.682Z,91.40
2019-02-05T12:12:59.301Z,91.50
2019-02-05T12:15:26.959Z,91.10
2019-02-05T12:17:54.668Z,90.80
2019-02-05T12:20:22.296Z,90.80
2019-02-05T12:22:51.529Z,90.80
2019-02-05T12:25:19.583Z,90.60
2019-02-05T12:27:47.179Z,90.30
2019-02-05T12:30:22.863Z,90.20
2019-02-05T12:32:50.531Z,89.30
2019-02-05T12:35:18.374Z,90.10
2019-02-05T12:37:45.912Z,90.10
2019-02-05T12:40:15.305Z,90.50
2019-02-05T12:42:43.866Z,90.30
2019-02-05T12:45:13.227Z,90.30
2019-02-05T12:47:40.618Z,90.60
2019-02-05T12:50:12.814Z,90.60
2019-02-05T12:52:40.284Z,90.40
2019-02-05T12:55:13.288Z,90.20
2019-02-05T12:57:37.413Z,90.30
2019-02-05T13:00:11.796Z,89.60
2019-02-05T13:02:39.296Z,88.00
2019-02-05T13:05:08.435Z,89.10
2019-02-05T13:07:36.461Z,89.20
2019-02-05T13:10:05.143Z,89.20
2019-02-05T13:12:32.946Z,89.40
2019-02-05T13:15:01.000Z,89.10
2019-02-05T13:17:28.882Z,88.80
2019-02-05T13:19:56.684Z,89.10
2019-02-05T13:22:24.112Z,89.90
2019-02-05T13:24:51.537Z,89.80
2019-02-05T13:27:18.928Z,89.80
2019-02-05T13:29:47.190Z,90.00
2019-02-05T13:32:15.043Z,90.20
2019-02-05T13:34:42.546Z,90.50
2019-02-05T13:37:10.004Z,90.00
2019-02-05T13:39:37.984Z,90.30
2019-02-05T13:42:05.487Z,90.10
2019-02-05T13:44:33.387Z,89.30
2019-02-05T13:47:01.385Z,89.10
2019-02-05T13:49:28.852Z,89.30
2019-02-05T13:51:56.301Z,90.20
2019-02-05T13:54:23.937Z,89.60
2019-02-05T13:56:51.518Z,90.20
2019-02-05T13:59:19.330Z,90.00
2019-02-05T14:01:46.881Z,90.10
2019-02-05T14:04:15.534Z,89.20
2019-02-05T14:06:43.084Z,89.30
2019-02-05T14:09:12.479Z,89.20
2019-02-05T14:11:40.152Z,89.30
2019-02-05T14:14:07.795Z,89.20
2019-02-05T14:16:35.390Z,89.30
2019-02-05T14:19:03.023Z,89.90
2019-02-05T14:21:31.389Z,89.70
2019-02-05T14:23:58.998Z,90.20
2019-02-05T14:26:27.547Z,90.20
2019-02-05T14:28:55.099Z,90.20
2019-02-05T14:31:31.063Z,90.20
2019-02-05T14:33:53.595Z,89.50
2019-02-05T14:36:21.129Z,90.00
2019-02-05T14:38:49.183Z,90.10
2019-02-05T14:41:17.677Z,90.10
2019-02-05T14:43:45.314Z,90.00
2019-02-05T14:46:13.293Z,89.40
2019-02-05T14:48:40.940Z,89.60
2019-02-05T14:51:08.434Z,89.60
2019-02-05T14:53:35.951Z,88.90
2019-02-05T14:56:04.113Z,88.90
2019-02-05T14:58:31.735Z,89.10
2019-02-05T15:01:00.577Z,88.80
2019-02-05T15:03:28.210Z,88.40
2019-02-05T15:05:56.193Z,88.70
2019-02-05T15:08:23.669Z,89.00
2019-02-05T15:10:51.147Z,89.10
2019-02-05T15:13:18.638Z,89.40
2019-02-05T15:15:46.500Z,89.60
2019-02-05T15:18:16.512Z,89.60
2019-02-05T15:20:47.606Z,89.50
2019-02-05T15:23:15.468Z,89.50
2019-02-05T15:25:43.752Z,89.50
2019-02-05T15:28:11.736Z,89.60
2019-02-05T15:30:40.851Z,89.60
2019-02-05T15:33:24.149Z,89.60
2019-02-05T15:36:03.876Z,89.60
2019-02-05T15:38:31.635Z,89.60
2019-02-05T15:41:00.374Z,89.60
2019-02-05T15:43:28.195Z,89.60
2019-02-05T15:45:58.152Z,89.50
2019-02-05T15:48:26.153Z,89.80
2019-02-05T15:50:53.763Z,89.70
2019-02-05T15:53:21.814Z,89.50
2019-02-05T15:55:49.543Z,89.80
2019-02-05T15:58:17.219Z,90.00
2019-02-05T16:00:46.045Z,90.00
2019-02-05T16:03:13.654Z,89.90
2019-02-05T16:05:41.334Z,90.10
2019-02-05T16:08:08.912Z,90.20
2019-02-05T16:10:37.060Z,90.20
2019-02-05T16:13:04.683Z,89.50
2019-02-05T16:15:32.301Z,89.80
2019-02-05T16:18:00.271Z,90.00
2019-02-05T16:20:28.054Z,90.00
2019-02-05T16:22:55.630Z,90.10
2019-02-05T16:25:23.240Z,90.10
2019-02-05T16:27:51.990Z,90.20
2019-02-05T16:30:19.677Z,90.30
2019-02-05T16:32:47.272Z,90.40
2019-02-05T16:35:14.905Z,90.60
2019-02-05T16:37:43.120Z,90.80
2019-02-05T16:40:13.597Z,90.80
2019-02-05T16:42:41.365Z,90.90
2019-02-05T16:45:12.676Z,91.00
2019-02-05T16:47:40.432Z,91.10
2019-02-05T16:50:12.252Z,91.20
2019-02-05T16:52:40.704Z,91.30
2019-02-05T16:55:08.505Z,91.30
2019-02-05T16:57:36.116Z,91.40
2019-02-05T17:00:13.767Z,91.40
2019-02-05T17:02:41.303Z,91.40
2019-02-05T17:05:09.457Z,91.90
2019-02-05T17:07:37.370Z,91.70
2019-02-05T17:10:06.503Z,91.80
2019-02-05T17:12:34.041Z,91.80
2019-02-05T17:15:02.484Z,91.80
2019-02-05T17:17:30.013Z,91.90
2019-02-05T17:19:57.703Z,92.00
2019-02-05T17:22:25.698Z,92.30
2019-02-05T17:24:53.291Z,92.50
2019-02-05T17:27:20.873Z,92.60
2019-02-05T17:29:50.193Z,92.70
2019-02-05T17:32:17.983Z,92.80
2019-02-05T17:34:45.540Z,92.90
2019-02-05T17:37:13.322Z,93.10
2019-02-05T17:39:40.968Z,93.30
2019-02-05T17:42:08.665Z,93.30
2019-02-05T17:44:36.545Z,93.60
2019-02-05T17:47:04.426Z,93.60
2019-02-05T17:49:32.579Z,93.80
2019-02-05T17:52:00.387Z,93.70
2019-02-05T17:54:28.130Z,93.70
2019-02-05T17:56:56.068Z,93.70
2019-02-05T17:59:23.667Z,93.80
2019-02-05T18:01:51.350Z,94.10
2019-02-05T18:04:18.890Z,94.30
2019-02-05T18:06:47.021Z,94.50
2019-02-05T18:09:14.640Z,94.60
2019-02-05T18:11:45.064Z,94.80
2019-02-05T18:14:12.629Z,95.00
2019-02-05T18:16:40.283Z,95.00
2019-02-05T18:19:07.912Z,95.00
2019-02-05T18:21:36.928Z,95.10
2019-02-05T18:24:05.097Z,95.10
2019-02-05T18:26:34.675Z,95.10
2019-02-05T18:29:04.837Z,95.00
2019-02-05T18:31:32.864Z,95.00
2019-02-05T18:34:01.434Z,95.00
2019-02-05T18:36:29.164Z,94.90
2019-02-05T18:38:57.543Z,95.00
2019-02-05T18:41:25.210Z,95.00
2019-02-05T18:43:53.034Z,95.30
2019-02-05T18:46:23.273Z,95.10
2019-02-05T18:48:51.389Z,95.10
2019-02-05T18:51:19.336Z,95.20
2019-02-05T18:53:48.432Z,95.30
2019-02-05T18:56:16.297Z,95.40
2019-02-05T18:58:44.036Z,95.40
2019-02-05T19:01:12.806Z,95.40
2019-02-05T19:03:40.804Z,95.30
2019-02-05T19:06:11.796Z,95.20
2019-02-05T19:08:40.160Z,95.20
2019-02-05T19:11:13.107Z,95.30
2019-02-05T19:13:43.582Z,95.30
2019-02-05T19:16:15.731Z,95.30
2019-02-05T19:18:48.183Z,95.40
2019-02-05T19:21:16.858Z,95.40
2019-02-05T19:23:45.748Z,95.40
2019-02-05T19:26:21.674Z,95.30
2019-02-05T19:28:52.711Z,95.50
2019-02-05T19:31:35.057Z,95.50
2019-02-05T19:34:03.770Z,95.40
2019-02-05T19:36:32.065Z,95.40
2019-02-05T19:39:01.686Z,95.40
2019-02-05T19:41:29.882Z,95.50
2019-02-05T19:44:01.129Z,95.50
2019-02-05T19:46:47.133Z,95.50
2019-02-05T19:49:22.258Z,95.50
2019-02-05T19:51:50.153Z,95.70
2019-02-05T19:54:18.695Z,95.60
2019-02-05T19:56:46.793Z,95.50
2019-02-05T19:59:18.334Z,95.60
2019-02-05T20:01:45.364Z,95.60
2019-02-05T20:04:13.488Z,95.70
2019-02-05T20:06:43.851Z,95.80
2019-02-05T20:09:14.745Z,95.80
2019-02-05T20:11:42.828Z,95.70
2019-02-05T20:14:10.767Z,95.80
2019-02-05T20:16:38.627Z,95.70
2019-02-05T20:19:09.183Z,95.80
2019-02-05T20:21:38.373Z,95.80
2019-02-05T20:24:10.074Z,95.80
2019-02-05T20:26:37.929Z,95.60
2019-02-05T20:29:06.269Z,95.80
2019-02-05T20:31:34.852Z,95.80
2019-02-05T20:34:05.080Z,95.80
2019-02-05T20:36:33.148Z,96.20
2019-02-05T20:39:01.189Z,95.90
2019-02-05T20:41:33.679Z,95.80
2019-02-05T20:44:01.334Z,95.70
2019-02-05T20:46:28.974Z,95.50
2019-02-05T20:48:59.521Z,95.60
2019-02-05T20:51:28.406Z,95.80
2019-02-05T20:53:56.433Z,95.80
2019-02-05T20:56:26.616Z,95.80
2019-02-05T20:58:54.582Z,95.80
2019-02-05T21:01:22.320Z,95.90
2019-02-05T21:04:00.673Z,96.00
2019-02-05T21:06:19.905Z,95.90
2019-02-05T21:08:47.654Z,95.70
2019-02-05T21:11:17.737Z,95.70
2019-02-05T21:13:45.710Z,95.80
2019-02-05T21:16:15.752Z,95.80
2019-02-05T21:18:43.443Z,95.70
2019-02-05T21:21:11.147Z,95.60
2019-02-05T21:23:38.985Z,95.60
2019-02-05T21:26:06.841Z,95.60
2019-02-05T21:28:35.637Z,95.50
2019-02-05T21:31:03.645Z,95.50
2019-02-05T21:33:31.269Z,95.50
2019-02-05T21:35:59.000Z,95.70
2019-02-05T21:38:26.863Z,95.70
2019-02-05T21:40:55.109Z,95.80
2019-02-05T21:43:22.789Z,95.80
2019-02-05T21:45:50.441Z,95.80
2019-02-05T21:48:18.490Z,96.10
2019-02-05T21:50:46.168Z,95.80
2019-02-05T21:53:13.737Z,95.90
2019-02-05T21:55:41.373Z,96.00
2019-02-05T21:58:08.913Z,96.20
2019-02-05T22:00:36.643Z,96.20
2019-02-05T22:03:05.113Z,96.10
2019-02-05T22:05:33.026Z,95.90
2019-02-05T22:08:01.172Z,95.90
2019-02-05T22:10:29.006Z,95.90
2019-02-05T22:12:57.471Z,95.80
2019-02-05T22:15:26.114Z,95.80
2019-02-05T22:17:54.121Z,95.80
2019-02-05T22:20:24.070Z,95.80
2019-02-05T22:22:56.078Z,95.90
2019-02-05T22:25:24.730Z,96.00
2019-02-05T22:27:52.434Z,96.00
2019-02-05T22:30:30.673Z,96.10
2019-02-05T22:32:58.324Z,96.10
2019-02-05T22:35:32.464Z,96.00
2019-02-05T22:38:01.028Z,96.00
2019-02-05T22:40:28.773Z,96.10
2019-02-05T22:42:56.362Z,96.20
2019-02-05T22:45:25.531Z,96.30
2019-02-05T22:47:53.157Z,96.20
2019-02-05T22:50:23.761Z,96.30
2019-02-05T22:52:51.400Z,96.20
2019-02-05T22:55:18.983Z,96.30
2019-02-05T22:57:46.519Z,96.20
2019-02-05T23:00:51.383Z,96.20
2019-02-05T23:03:23.105Z,96.40
2019-02-05T23:06:52.817Z,96.10
2019-02-05T23:09:33.604Z,96.00
2019-02-05T23:12:32.693Z,96.10
2019-02-05T23:15:06.029Z,96.30
2019-02-05T23:17:34.713Z,96.30
2019-02-05T23:20:04.516Z,96.30
2019-02-05T23:22:34.285Z,96.40
2019-02-05T23:25:04.941Z,96.40
2019-02-05T23:27:35.060Z,96.40
2019-02-05T23:30:03.315Z,96.40
2019-02-05T23:32:30.868Z,96.40
2019-02-05T23:35:02.188Z,96.20
2019-02-05T23:37:27.804Z,96.30
2019-02-05T23:39:55.458Z,96.40
2019-02-05T23:42:23.318Z,96.40
2019-02-05T23:44:50.756Z,96.50
2019-02-05T23:47:18.886Z,96.50
2019-02-05T23:49:46.418Z,96.50
2019-02-05T23:52:14.158Z,96.50
2019-02-05T23:54:41.575Z,96.50
2019-02-05T23:57:09.996Z,96.50
2019-02-05T23:59:37.834Z,96.50
